Time;durP1;ratioP1;P1;durP2;ratioP2;P2;SDS_P1;SDS_P2;PMS_P1;PMS_P2;Temp;Humidity;BMP_temperature;BMP_pressure;BME280_temperature;BME280_humidity;BME280_pressure;Samples;Min_cycle;Max_cycle;Signal;HPM_P1;HPM_P2
2023/06/21 00:02:07;;;;;;;6.77;6.57;;;;;;;-145.94;64.27;75746.22;5113932;28;20189;-67
2023/06/21 00:04:33;;;;;;;8.53;7.60;;;;;;;-145.94;64.10;75746.22;5113615;28;20207;-67
2023/06/21 00:07:01;;;;;;;7.37;6.80;;;;;;;-145.94;63.46;75746.22;5114459;28;20655;-67
2023/06/21 00:09:27;;;;;;;6.53;6.30;;;;;;;-145.94;63.22;75738.06;5117838;28;20201;-68
2023/06/21 00:11:53;;;;;;;6.93;6.63;;;;;;;-145.94;62.76;75734.00;5117826;28;20189;-68
2023/06/21 00:14:20;;;;;;;5.83;5.73;;;;;;;-145.94;62.67;75742.16;5118271;28;20193;-68
2023/06/21 00:16:46;;;;;;;6.43;6.23;;;;;;;-145.94;62.81;75736.03;5117753;28;20181;-68
2023/06/21 00:19:13;;;;;;;6.00;5.73;;;;;;;-145.94;62.74;75738.06;5118226;28;20653;-68
2023/06/21 00:21:39;;;;;;;5.50;5.30;;;;;;;-145.94;63.00;75740.13;5117639;28;20204;-68
2023/06/21 00:24:08;;;;;;;5.50;5.40;;;;;;;-145.94;62.83;75738.06;5117880;28;20214;-68
2023/06/21 00:26:35;;;;;;;5.00;4.90;;;;;;;-145.94;62.91;75738.06;5117542;28;20185;-68
2023/06/21 00:29:02;;;;;;;6.03;5.67;;;;;;;-145.94;62.83;75746.22;5099311;28;20189;-69
2023/06/21 00:31:28;;;;;;;5.73;5.63;;;;;;;-145.94;63.19;75750.31;5118062;28;20234;-68
2023/06/21 00:33:55;;;;;;;5.33;5.00;;;;;;;-145.94;63.01;75768.66;5117656;28;20205;-68
2023/06/21 00:36:21;;;;;;;4.97;4.77;;;;;;;-145.94;62.85;75772.72;5099173;28;20193;-68
2023/06/21 00:38:48;;;;;;;4.60;4.50;;;;;;;-145.94;62.94;75770.69;5117372;28;20186;-68
2023/06/21 00:41:16;;;;;;;4.80;4.70;;;;;;;-145.94;62.93;75764.56;5099034;28;20584;-68
2023/06/21 00:43:42;;;;;;;4.37;4.17;;;;;;;-145.94;62.79;75764.56;5117240;28;20708;-67
2023/06/21 00:46:11;;;;;;;4.80;4.80;;;;;;;-145.94;62.56;75774.78;5099190;28;20185;-67
2023/06/21 00:48:37;;;;;;;5.27;5.10;;;;;;;-145.94;62.61;75774.78;5117725;28;20196;-67
2023/06/21 00:51:04;;;;;;;6.43;4.57;;;;;;;-145.94;62.35;75770.69;5098780;28;20706;-67
2023/06/21 00:53:30;;;;;;;4.67;4.50;;;;;;;-145.94;62.52;75772.72;5117010;28;20204;-67
2023/06/21 00:56:00;;;;;;;6.43;6.03;;;;;;;-145.94;62.37;75787.00;5098709;28;20189;-67
2023/06/21 00:58:26;;;;;;;4.90;4.70;;;;;;;-145.94;62.80;75799.22;5116992;28;20593;-67
2023/06/21 01:00:53;;;;;;;4.13;4.13;;;;;;;-145.94;62.87;75801.28;5116839;28;20205;-67
2023/06/21 01:03:21;;;;;;;4.47;4.47;;;;;;;-145.94;62.89;75795.16;5098656;28;20235;-67
2023/06/21 01:06:16;;;;;;;4.23;4.23;;;;;;;-145.94;62.82;75791.09;5098532;28;20201;-67
2023/06/21 01:09:22;;;;;;;4.23;4.13;;;;;;;-145.94;62.56;75799.22;5117094;28;20173;-67
2023/06/21 01:12:32;;;;;;;4.53;4.43;;;;;;;-145.94;62.56;75795.16;5112401;28;20212;-68
2023/06/21 01:15:07;;;;;;;4.80;4.60;;;;;;;-145.94;62.53;75797.19;5098348;28;20209;-68
2023/06/21 01:17:35;;;;;;;4.53;4.23;;;;;;;-145.94;62.62;75803.31;5117183;28;20169;-68
2023/06/21 01:20:13;;;;;;;4.13;4.13;;;;;;;-145.94;62.55;75795.16;5115064;28;20209;-68
2023/06/21 01:23:02;;;;;;;4.53;4.43;;;;;;;-145.94;62.57;75819.63;5098284;28;20230;-68
2023/06/21 01:25:59;;;;;;;4.70;4.30;;;;;;;-145.94;63.12;75819.63;5098179;28;20201;-68
2023/06/21 01:29:03;;;;;;;5.23;4.83;;;;;;;-145.94;63.22;75831.84;5098168;28;20211;-67
2023/06/21 01:31:30;;;;;;;5.50;5.30;;;;;;;-145.94;63.52;75852.25;5116905;28;20177;-68
2023/06/21 01:33:59;;;;;;;5.47;5.17;;;;;;;-145.94;63.68;75858.34;5116734;28;20208;-68
2023/06/21 01:36:26;;;;;;;4.53;4.43;;;;;;;-145.94;63.85;75860.41;5116808;28;20185;-68
2023/06/21 01:38:56;;;;;;;4.87;4.77;;;;;;;-145.94;64.09;75866.50;5116752;28;20186;-68
2023/06/21 01:41:25;;;;;;;5.33;5.23;;;;;;;-145.94;63.87;75856.31;5097813;28;20228;-68
2023/06/21 01:43:56;;;;;;;4.60;4.60;;;;;;;-145.94;64.02;75854.28;5116692;28;20165;-68
2023/06/21 01:46:25;;;;;;;4.63;4.43;;;;;;;-145.94;63.89;75844.09;5097778;28;20235;-68
2023/06/21 01:48:54;;;;;;;6.13;5.73;;;;;;;-145.94;63.72;75854.28;5115990;28;20185;-68
2023/06/21 01:51:22;;;;;;;4.87;4.67;;;;;;;-145.94;63.83;75860.41;5097635;28;20267;-68
2023/06/21 01:53:48;;;;;;;5.83;5.33;;;;;;;-145.94;64.19;75868.56;5115862;28;20217;-68
2023/06/21 01:56:17;;;;;;;5.47;5.37;;;;;;;-145.94;64.13;75866.50;5115849;28;20189;-67
2023/06/21 01:58:46;;;;;;;5.83;5.53;;;;;;;-145.94;64.16;75880.78;5115802;28;20185;-67
2023/06/21 02:01:14;;;;;;;5.67;5.30;;;;;;;-145.94;64.27;75880.78;5097464;28;20572;-67
2023/06/21 02:03:43;;;;;;;5.57;5.20;;;;;;;-145.94;64.18;75880.78;5097467;28;20204;-67
2023/06/21 02:06:11;;;;;;;4.87;4.77;;;;;;;-145.94;64.01;75876.69;5097403;28;20193;-67
2023/06/21 02:08:38;;;;;;;5.17;4.87;;;;;;;-145.94;64.04;75872.63;5098155;28;20669;-67
2023/06/21 02:11:06;;;;;;;5.97;5.47;;;;;;;-145.94;63.85;75864.47;5097220;28;20208;-68
2023/06/21 02:13:34;;;;;;;4.63;4.63;;;;;;;-145.94;63.92;75868.56;5097445;28;20695;-67
2023/06/21 02:16:00;;;;;;;4.87;4.60;;;;;;;-145.94;63.86;75864.47;5097194;28;20197;-67
2023/06/21 02:18:27;;;;;;;4.50;4.50;;;;;;;-145.94;63.88;75862.44;5115461;28;20246;-67
2023/06/21 02:20:53;;;;;;;5.00;4.90;;;;;;;-145.94;63.95;75870.59;5115274;28;20201;-68
2023/06/21 02:23:20;;;;;;;5.17;4.70;;;;;;;-145.94;63.77;75868.56;5097000;28;20189;-68
2023/06/21 02:25:46;;;;;;;4.40;4.40;;;;;;;-145.94;63.68;75862.44;5097567;28;20547;-68
2023/06/21 02:28:13;;;;;;;4.07;4.03;;;;;;;-145.94;63.72;75868.56;5115411;28;20549;-67
2023/06/21 02:30:39;;;;;;;4.90;4.80;;;;;;;-145.94;63.62;75864.47;5114639;28;20213;-68
2023/06/21 02:33:07;;;;;;;3.90;3.90;;;;;;;-145.94;63.75;75874.66;5097008;28;20288;-68
2023/06/21 02:35:34;;;;;;;4.83;4.67;;;;;;;-145.94;63.71;75880.78;5096777;28;20213;-68
2023/06/21 02:38:01;;;;;;;4.70;4.50;;;;;;;-145.94;63.38;75870.59;5115564;28;20185;-68
2023/06/21 02:40:30;;;;;;;6.53;4.73;;;;;;;-145.94;63.49;75880.78;5115180;28;20196;-68
2023/06/21 02:42:59;;;;;;;4.40;4.40;;;;;;;-145.94;63.83;75882.81;5096924;28;20197;-68
2023/06/21 02:45:26;;;;;;;4.37;4.37;;;;;;;-145.94;63.68;75886.91;5114920;28;20177;-68
2023/06/21 02:47:54;;;;;;;5.90;5.40;;;;;;;-145.94;63.70;75878.75;5115144;28;20178;-68
2023/06/21 02:50:21;;;;;;;5.90;5.50;;;;;;;-145.94;63.38;75882.81;5114726;28;20709;-68
2023/06/21 02:52:47;;;;;;;6.77;6.17;;;;;;;-145.94;63.18;75876.69;5096799;28;20551;-67
2023/06/21 02:55:16;;;;;;;6.03;5.83;;;;;;;-145.94;63.27;75882.81;5115244;28;20193;-67
2023/06/21 02:57:42;;;;;;;5.87;5.67;;;;;;;-145.94;63.44;75895.06;5096439;28;20184;-67
2023/06/21 03:00:19;;;;;;;5.80;5.70;;;;;;;-145.94;63.77;75895.06;5114762;28;20220;-68
2023/06/21 03:02:45;;;;;;;5.80;5.80;;;;;;;-145.94;63.92;75911.38;5115210;28;20173;-67
2023/06/21 03:05:12;;;;;;;5.73;5.30;;;;;;;-145.94;63.77;75921.56;5115031;28;20580;-67
2023/06/21 03:07:45;;;;;;;6.30;6.07;;;;;;;-145.94;63.95;75927.66;5096340;28;20563;-67
2023/06/21 03:10:15;;;;;;;6.60;6.13;;;;;;;-145.94;63.90;75931.75;5114802;28;20223;-68
2023/06/21 03:12:43;;;;;;;5.60;5.37;;;;;;;-145.94;64.08;75933.78;5096098;28;20543;-68
2023/06/21 03:15:14;;;;;;;6.30;6.10;;;;;;;-145.94;63.96;75931.75;5096952;28;20689;-68
2023/06/21 03:17:41;;;;;;;5.30;5.10;;;;;;;-145.94;63.99;75935.81;5096229;28;20724;-68
2023/06/21 03:20:12;;;;;;;5.70;5.60;;;;;;;-145.94;63.95;75929.72;5114210;28;20197;-68
2023/06/21 03:22:42;;;;;;;6.20;6.03;;;;;;;-145.94;63.88;75923.59;5096532;28;20276;-68
2023/06/21 03:25:14;;;;;;;4.87;4.77;;;;;;;-145.94;63.84;75927.66;5096144;28;20192;-68
2023/06/21 03:27:43;;;;;;;5.60;5.53;;;;;;;-145.94;63.73;75923.59;5096480;28;20188;-68
2023/06/21 03:30:12;;;;;;;5.40;5.00;;;;;;;-145.94;63.66;75917.47;5095730;28;20270;-68
2023/06/21 03:32:48;;;;;;;5.90;5.70;;;;;;;-145.94;63.62;75925.63;5096308;28;20219;-68
2023/06/21 03:35:18;;;;;;;6.10;5.70;;;;;;;-145.94;63.54;75933.78;5095788;28;20197;-68
2023/06/21 03:37:47;;;;;;;5.90;5.53;;;;;;;-145.94;63.57;75933.78;5095676;28;20659;-68
2023/06/21 03:40:16;;;;;;;6.50;6.40;;;;;;;-145.94;63.40;75933.78;5096461;28;20208;-68
2023/06/21 03:42:44;;;;;;;6.30;5.90;;;;;;;-145.94;63.72;75943.97;5094891;28;20196;-67
2023/06/21 03:45:12;;;;;;;7.57;7.17;;;;;;;-145.94;64.00;75946.03;5095650;28;20195;-67
2023/06/21 03:47:40;;;;;;;7.10;6.57;;;;;;;-145.94;63.90;75950.09;5095579;28;20203;-67
2023/06/21 03:50:08;;;;;;;7.10;6.97;;;;;;;-145.94;64.28;75954.19;5095754;28;20213;-67
2023/06/21 03:52:38;;;;;;;6.80;6.50;;;;;;;-145.94;64.03;75948.06;5096415;28;20250;-67
2023/06/21 03:55:06;;;;;;;7.30;6.70;;;;;;;-145.94;64.30;75950.09;5114501;28;20212;-67
2023/06/21 03:57:33;;;;;;;7.40;7.20;;;;;;;-145.94;64.27;75948.06;5114064;28;20234;-67
2023/06/21 04:00:00;;;;;;;7.43;7.20;;;;;;;-145.94;64.13;75943.97;5113667;28;20212;-67
2023/06/21 04:02:28;;;;;;;8.67;8.07;;;;;;;-145.94;64.37;75950.09;5113702;28;20197;-67
2023/06/21 04:04:55;;;;;;;7.33;7.03;;;;;;;-145.94;64.43;75962.34;5113950;28;20212;-67
2023/06/21 04:07:23;;;;;;;9.07;7.23;;;;;;;-145.94;64.49;75956.22;5113655;28;20534;-67
2023/06/21 04:09:50;;;;;;;12.30;7.80;;;;;;;-145.94;64.47;75964.38;5095389;28;20220;-67
2023/06/21 04:12:16;;;;;;;7.10;6.80;;;;;;;-145.94;64.62;75958.25;5095449;28;20658;-68
2023/06/21 04:14:43;;;;;;;7.20;7.00;;;;;;;-145.94;64.47;75954.19;5113801;28;20593;-67
2023/06/21 04:17:09;;;;;;;8.20;7.57;;;;;;;-145.94;64.49;75948.06;5095423;28;20570;-67
2023/06/21 04:19:36;;;;;;;8.27;7.43;;;;;;;-145.94;64.56;75941.94;5095431;28;20209;-67
2023/06/21 04:22:02;;;;;;;8.57;7.93;;;;;;;-145.94;64.29;75935.81;5113849;28;20524;-67
2023/06/21 04:24:29;;;;;;;8.10;7.60;;;;;;;-145.94;64.42;75931.75;5113794;28;20242;-67
2023/06/21 04:26:58;;;;;;;8.30;7.80;;;;;;;-145.94;64.34;75931.75;5095772;28;20231;-67
2023/06/21 04:29:26;;;;;;;8.37;7.90;;;;;;;-145.94;64.42;75929.72;5095079;28;20265;-68
2023/06/21 04:31:52;;;;;;;7.93;7.30;;;;;;;-145.94;64.16;75929.72;5113437;28;20192;-68
2023/06/21 04:34:20;;;;;;;10.13;8.03;;;;;;;-145.94;64.20;75931.75;5113297;28;20587;-67
2023/06/21 04:36:47;;;;;;;7.90;7.33;;;;;;;-145.94;64.47;75927.66;5113355;28;20697;-67
2023/06/21 04:39:15;;;;;;;9.77;8.43;;;;;;;-145.94;64.27;75931.75;5113275;28;20187;-68
2023/06/21 04:41:42;;;;;;;11.00;8.53;;;;;;;-145.94;64.22;75929.72;5113257;28;20185;-67
2023/06/21 04:44:08;;;;;;;8.10;7.50;;;;;;;-145.94;64.10;75933.78;5113577;28;20189;-67
2023/06/21 04:46:36;;;;;;;8.80;7.63;;;;;;;-145.94;63.97;75923.59;5114391;28;20523;-67
2023/06/21 04:49:05;;;;;;;7.93;7.30;;;;;;;-145.94;63.83;75921.56;5113168;28;20193;-68
2023/06/21 04:51:32;;;;;;;8.50;7.63;;;;;;;-145.94;63.95;75921.56;5113489;28;20655;-68
2023/06/21 04:53:59;;;;;;;7.23;6.93;;;;;;;-145.94;63.91;75919.50;5115180;28;20212;-67
2023/06/21 04:56:26;;;;;;;15.57;8.37;;;;;;;-145.94;63.56;75911.38;5116949;28;20199;-67
2023/06/21 04:58:53;;;;;;;8.03;7.60;;;;;;;-145.94;63.42;75909.31;5116843;28;20181;-67
2023/06/21 05:01:19;;;;;;;13.93;8.63;;;;;;;-145.94;63.38;75905.25;5116870;28;20767;-68
2023/06/21 05:03:47;;;;;;;10.67;9.40;;;;;;;-145.94;63.16;75901.16;5116836;28;20189;-68
2023/06/21 05:06:14;;;;;;;11.53;8.97;;;;;;;-145.94;63.16;75897.09;5116822;28;20192;-67
2023/06/21 05:08:41;;;;;;;11.33;8.40;;;;;;;-145.94;62.99;75899.13;5117062;28;20196;-67
2023/06/21 05:11:08;;;;;;;9.87;8.53;;;;;;;-145.94;62.98;75895.06;5116665;28;20216;-67
2023/06/21 05:13:34;;;;;;;9.03;7.87;;;;;;;-145.94;63.02;75895.06;5117210;28;20195;-67
2023/06/21 05:16:01;;;;;;;9.13;8.57;;;;;;;-145.94;62.78;75893.00;5116562;28;20209;-67
2023/06/21 05:18:27;;;;;;;9.80;9.00;;;;;;;-145.94;62.92;75890.97;5116912;28;20196;-67
2023/06/21 05:20:55;;;;;;;9.27;8.47;;;;;;;-145.94;62.78;75895.06;5116480;28;20246;-67
2023/06/21 05:23:21;;;;;;;11.10;10.00;;;;;;;-145.94;62.70;75897.09;5116404;28;20242;-67
2023/06/21 05:25:48;;;;;;;8.80;8.40;;;;;;;-145.94;63.04;75893.00;5116723;28;20166;-67
2023/06/21 05:28:14;;;;;;;11.30;9.20;;;;;;;-145.94;62.85;75886.91;5116891;28;20181;-67
2023/06/21 05:30:41;;;;;;;12.20;8.40;;;;;;;-145.94;62.63;75872.63;5116044;28;20213;-68
2023/06/21 05:33:08;;;;;;;9.87;9.00;;;;;;;-145.94;62.60;75876.69;5116292;28;20213;-67
2023/06/21 05:35:34;;;;;;;10.33;9.20;;;;;;;-145.94;62.25;75876.69;5116213;28;20205;-67
2023/06/21 05:38:01;;;;;;;9.93;9.13;;;;;;;-145.94;62.07;75872.63;5116128;28;20246;-67
2023/06/21 05:40:27;;;;;;;9.73;8.93;;;;;;;-145.94;62.23;75852.25;5116039;28;20208;-68
2023/06/21 05:42:54;;;;;;;10.07;9.13;;;;;;;-145.94;62.16;75846.13;5116792;28;20504;-67
2023/06/21 05:45:22;;;;;;;9.63;8.93;;;;;;;-145.94;62.10;75840.00;5115886;28;20543;-67
2023/06/21 05:47:49;;;;;;;18.47;9.47;;;;;;;-145.94;61.93;75846.13;5115971;28;20231;-67
2023/06/21 05:50:15;;;;;;;10.60;9.60;;;;;;;-145.94;61.66;75848.16;5116361;28;20204;-67
2023/06/21 05:52:41;;;;;;;10.03;9.33;;;;;;;-145.94;61.50;75848.16;5116162;28;20211;-67
2023/06/21 05:55:08;;;;;;;10.90;9.83;;;;;;;-145.94;61.51;75840.00;5116258;28;20201;-67
2023/06/21 05:57:35;;;;;;;10.80;9.17;;;;;;;-145.94;61.53;75844.09;5115842;28;20185;-67
2023/06/21 06:00:03;;;;;;;10.60;9.50;;;;;;;-145.94;61.48;75842.03;5115726;28;20262;-68
2023/06/21 06:02:39;;;;;;;9.93;9.00;;;;;;;-145.94;61.35;75835.94;5099184;28;20173;-67
2023/06/21 06:05:06;;;;;;;9.67;8.77;;;;;;;-145.94;61.19;75831.84;5115327;28;20191;-67
2023/06/21 06:07:32;;;;;;;11.10;10.00;;;;;;;-145.94;61.07;75823.69;5115608;28;20185;-67
2023/06/21 06:09:59;;;;;;;10.90;9.73;;;;;;;-145.94;61.24;75819.63;5115696;28;20200;-67
2023/06/21 06:12:25;;;;;;;16.60;9.93;;;;;;;-145.94;61.01;75823.69;5115568;28;20593;-67
2023/06/21 06:14:52;;;;;;;12.93;9.43;;;;;;;-145.94;60.92;75829.81;5115452;28;20678;-67
2023/06/21 06:17:19;;;;;;;11.73;9.17;;;;;;;-145.94;60.85;75831.84;5097601;28;20188;-67
2023/06/21 06:19:45;;;;;;;10.00;9.10;;;;;;;-145.94;60.82;75833.88;5115507;28;20300;-67
2023/06/21 06:22:12;;;;;;;11.53;10.40;;;;;;;-145.94;61.02;75837.97;5115550;28;20181;-67
2023/06/21 06:24:38;;;;;;;11.40;10.37;;;;;;;-145.94;60.62;75829.81;5115595;28;20185;-67
2023/06/21 06:27:05;;;;;;;10.70;9.53;;;;;;;-145.94;60.92;75831.84;5115248;28;20227;-67
2023/06/21 06:29:32;;;;;;;12.23;11.03;;;;;;;-145.94;60.74;75825.75;5115405;28;20270;-67
2023/06/21 06:31:58;;;;;;;10.40;9.60;;;;;;;-145.94;60.68;75827.78;5115162;28;20181;-67
2023/06/21 06:34:25;;;;;;;12.77;10.47;;;;;;;-145.94;60.64;75831.84;5115036;28;20223;-67
2023/06/21 06:36:51;;;;;;;22.87;11.13;;;;;;;-145.94;61.06;75821.66;5115020;28;20651;-67
2023/06/21 06:39:38;;;;;;;13.67;12.40;;;;;;;-145.94;60.34;75821.66;5115491;28;20300;-67
2023/06/21 06:42:04;;;;;;;12.63;11.37;;;;;;;-145.94;60.27;75807.38;5115003;28;20189;-67
2023/06/21 06:44:31;;;;;;;13.50;12.17;;;;;;;-145.94;60.07;75815.53;5114923;28;20243;-67
2023/06/21 06:46:57;;;;;;;20.77;12.07;;;;;;;-145.94;60.29;75815.53;5114871;28;20190;-67
2023/06/21 06:49:24;;;;;;;12.30;10.97;;;;;;;-145.94;60.18;75811.47;5114751;28;20608;-67
2023/06/21 06:51:50;;;;;;;14.97;12.97;;;;;;;-145.94;60.20;75811.47;5115299;28;20238;-67
2023/06/21 06:54:17;;;;;;;23.07;16.80;;;;;;;-145.94;59.55;75811.47;5114661;28;20181;-67
2023/06/21 06:56:43;;;;;;;24.27;14.87;;;;;;;-145.94;59.88;75821.66;5114660;28;20652;-67
2023/06/21 06:59:10;;;;;;;21.43;15.90;;;;;;;-145.94;59.84;75815.53;5114858;28;20660;-68
2023/06/21 07:01:36;;;;;;;19.00;15.63;;;;;;;-145.94;60.11;75807.38;5114868;28;20220;-67
2023/06/21 07:04:03;;;;;;;21.70;15.17;;;;;;;-145.94;59.94;75791.09;5114550;28;20193;-67
2023/06/21 07:06:29;;;;;;;16.27;13.80;;;;;;;-145.94;59.95;75784.97;5114457;28;20178;-67
2023/06/21 07:08:56;;;;;;;18.63;16.83;;;;;;;-145.94;59.20;75768.66;5114437;28;20195;-67
2023/06/21 07:11:22;;;;;;;17.53;15.23;;;;;;;-145.94;58.90;75770.69;5114374;28;20262;-67
2023/06/21 07:13:49;;;;;;;15.47;14.10;;;;;;;-145.94;58.98;75748.28;5114895;28;20231;-67
2023/06/21 07:16:15;;;;;;;21.37;14.80;;;;;;;-145.94;59.00;75750.31;5114517;28;20209;-67
2023/06/21 07:18:42;;;;;;;26.23;17.30;;;;;;;-145.94;58.58;75756.41;5114768;28;20744;-67
2023/06/21 07:21:08;;;;;;;21.07;16.33;;;;;;;-145.94;58.28;75756.41;5114154;28;20209;-68
2023/06/21 07:23:35;;;;;;;17.20;15.33;;;;;;;-145.94;58.43;75746.22;5114255;28;20221;-67
2023/06/21 07:26:02;;;;;;;21.50;16.20;;;;;;;-145.94;58.37;75748.28;5114155;28;20181;-67
2023/06/21 07:28:29;;;;;;;19.93;15.07;;;;;;;-145.94;58.47;75734.00;5114701;28;20192;-67
2023/06/21 07:30:55;;;;;;;20.93;18.30;;;;;;;-145.94;57.94;75725.84;5114197;28;20232;-67
2023/06/21 07:33:22;;;;;;;28.40;17.20;;;;;;;-145.94;57.68;75723.81;5114318;28;20596;-67
2023/06/21 07:35:49;;;;;;;22.97;17.73;;;;;;;-145.94;58.07;75713.63;5113963;28;20209;-67
2023/06/21 07:38:16;;;;;;;18.97;14.87;;;;;;;-145.94;57.48;75707.50;5114018;28;20667;-67
2023/06/21 07:40:42;;;;;;;24.60;16.93;;;;;;;-145.94;56.97;75707.50;5114644;28;20266;-67
2023/06/21 07:43:09;;;;;;;27.43;16.67;;;;;;;-145.94;56.72;75701.38;5113914;28;20188;-67
2023/06/21 07:45:35;;;;;;;18.67;17.13;;;;;;;-145.94;56.44;75715.66;5113892;28;20185;-67
2023/06/21 07:48:02;;;;;;;25.70;15.70;;;;;;;-145.94;57.01;75744.19;5113852;28;20184;-67
2023/06/21 07:50:28;;;;;;;18.07;16.47;;;;;;;-145.94;57.05;75738.06;5113954;28;20209;-67
2023/06/21 07:52:55;;;;;;;17.33;15.60;;;;;;;-145.94;57.47;75725.84;5113777;28;20238;-67
2023/06/21 07:55:21;;;;;;;19.23;16.20;;;;;;;-145.94;56.57;75703.41;5113672;28;20201;-67
2023/06/21 07:57:48;;;;;;;19.60;17.37;;;;;;;-145.94;56.26;75717.69;5113746;28;20301;-68
2023/06/21 08:00:15;;;;;;;19.17;17.33;;;;;;;-145.94;56.14;75731.97;5113825;28;20262;-67
2023/06/21 08:02:44;;;;;;;18.63;17.17;;;;;;;-145.94;56.34;75729.91;5113534;28;20189;-67
2023/06/21 08:05:11;;;;;;;20.10;18.17;;;;;;;-145.94;56.40;75731.97;5114311;28;20195;-67
2023/06/21 08:07:37;;;;;;;19.80;17.47;;;;;;;-145.94;56.58;75754.38;5114029;28;20188;-67
2023/06/21 08:10:04;;;;;;;17.43;16.33;;;;;;;-145.94;55.38;75742.16;5113468;28;20205;-68
2023/06/21 08:12:31;;;;;;;20.47;17.60;;;;;;;-145.94;55.11;75725.84;5113802;28;20724;-68
2023/06/21 08:15:01;;;;;;;18.03;16.53;;;;;;;-145.94;54.78;75713.63;5113716;28;20583;-68
2023/06/21 08:17:28;;;;;;;19.73;17.73;;;;;;;-145.94;55.14;75699.34;5113514;28;20192;-68
2023/06/21 08:19:54;;;;;;;19.37;17.93;;;;;;;-145.94;54.58;75681.00;5113477;28;20212;-68
2023/06/21 08:22:21;;;;;;;18.93;17.33;;;;;;;-145.94;54.56;75674.88;5113505;28;20189;-68
2023/06/21 08:24:47;;;;;;;18.17;16.50;;;;;;;-145.94;54.72;75668.75;5113541;28;20186;-68
2023/06/21 08:27:14;;;;;;;17.20;15.63;;;;;;;-145.94;54.74;75656.53;5113479;28;20181;-68
2023/06/21 08:29:40;;;;;;;19.30;17.40;;;;;;;-145.94;54.03;75658.56;5116929;28;20223;-68
2023/06/21 08:32:07;;;;;;;19.47;17.97;;;;;;;-145.94;54.21;75683.03;5117531;28;20185;-68
2023/06/21 08:34:33;;;;;;;18.93;17.20;;;;;;;-145.94;55.00;75681.00;5117785;28;20197;-68
2023/06/21 08:37:00;;;;;;;18.77;16.97;;;;;;;-145.94;54.81;75683.03;5117613;28;20209;-68
2023/06/21 08:39:26;;;;;;;18.23;16.63;;;;;;;-145.94;54.68;75664.69;5117797;28;20205;-68
2023/06/21 08:41:57;;;;;;;18.10;16.57;;;;;;;-145.94;54.60;75648.38;5117904;28;20173;-68
2023/06/21 08:44:24;;;;;;;18.73;17.07;;;;;;;-145.94;54.78;75642.25;5117637;28;20181;-68
2023/06/21 08:46:51;;;;;;;18.33;16.63;;;;;;;-145.94;54.17;75640.22;5117273;28;20549;-68
2023/06/21 08:49:19;;;;;;;18.87;16.80;;;;;;;-145.94;53.91;75640.22;5117438;28;20627;-68
2023/06/21 08:51:48;;;;;;;17.53;15.80;;;;;;;-145.94;53.64;75619.84;5117716;28;20177;-68
2023/06/21 08:54:19;;;;;;;17.40;15.87;;;;;;;-145.94;53.21;75607.59;5117598;28;20186;-68
2023/06/21 08:56:50;;;;;;;16.38;14.95;;;;;;;-145.94;52.81;75601.50;5116941;28;20197;-68
2023/06/21 08:59:32;;;;;;;13.33;12.50;;;;;;;-145.94;52.68;75597.41;5117152;28;20170;-68
2023/06/21 09:02:09;;;;;;;17.00;14.57;;;;;;;-145.94;52.78;75587.22;5117507;28;20600;-68
2023/06/21 09:04:44;;;;;;;14.60;13.33;;;;;;;-145.94;52.64;75550.53;5117479;28;20177;-67
2023/06/21 09:07:12;;;;;;;11.57;10.50;;;;;;;-145.94;53.17;75536.25;5116844;28;20226;-67
2023/06/21 09:09:40;;;;;;;11.82;10.75;;;;;;;-145.94;52.86;75570.91;5117183;28;20258;-68
2023/06/21 09:12:09;;;;;;;12.93;11.80;;;;;;;-145.94;52.98;75570.91;5117060;28;20189;-68
2023/06/21 09:14:36;;;;;;;12.95;11.77;;;;;;;-145.94;53.04;75583.16;5098620;28;20659;-68
2023/06/21 09:17:03;;;;;;;13.80;12.80;;;;;;;-145.94;52.92;75587.22;5116528;28;20258;-68
2023/06/21 09:19:29;;;;;;;12.97;12.30;;;;;;;-145.94;53.50;75589.25;5116598;28;20250;-68
2023/06/21 09:21:57;;;;;;;15.10;13.97;;;;;;;-145.94;53.50;75593.34;5116940;28;20181;-68
2023/06/21 09:24:24;;;;;;;15.43;13.83;;;;;;;-145.94;53.95;75585.19;5117068;28;20187;-68
2023/06/21 09:26:50;;;;;;;13.60;12.90;;;;;;;-145.94;53.57;75585.19;5116474;28;20238;-68
2023/06/21 09:29:18;;;;;;;13.67;12.43;;;;;;;-145.94;53.20;75591.28;5116406;28;20728;-68
2023/06/21 09:31:45;;;;;;;13.10;11.90;;;;;;;-145.94;53.17;75605.56;5116617;28;20173;-68
2023/06/21 09:34:11;;;;;;;12.50;11.20;;;;;;;-145.94;53.50;75609.66;5116223;28;20220;-68
2023/06/21 09:36:40;;;;;;;10.40;9.60;;;;;;;-145.94;52.14;75595.38;5116238;28;20274;-68
2023/06/21 09:39:11;;;;;;;8.60;8.40;;;;;;;-145.94;50.68;75570.91;5116333;28;20182;-68
2023/06/21 09:41:38;;;;;;;8.87;8.30;;;;;;;-145.94;50.42;75566.84;5115509;28;20193;-67
2023/06/21 09:44:05;;;;;;;8.05;7.55;;;;;;;-145.94;50.30;75562.75;5116037;28;20189;-67
2023/06/21 09:46:31;;;;;;;8.37;7.77;;;;;;;-145.94;49.66;75540.34;5116318;28;20256;-67
2023/06/21 09:49:08;;;;;;;7.30;7.10;;;;;;;-145.94;49.08;75513.84;5115998;28;20178;-67
2023/06/21 09:51:43;;;;;;;6.63;6.30;;;;;;;-145.94;49.00;75497.53;5116484;28;20192;-67
2023/06/21 09:54:09;;;;;;;7.80;6.72;;;;;;;-145.94;48.17;75464.91;5116137;28;20173;-68
2023/06/21 09:56:37;;;;;;;6.63;6.30;;;;;;;-145.94;47.49;75473.06;5116131;28;20205;-67
2023/06/21 09:59:13;;;;;;;6.95;6.25;;;;;;;-145.94;47.39;75471.03;5116305;28;20570;-68
2023/06/21 10:01:45;;;;;;;6.85;6.65;;;;;;;-145.94;47.26;75464.91;5115893;28;20169;-67
2023/06/21 10:04:16;;;;;;;9.48;7.38;;;;;;;-145.94;47.24;75446.56;5115822;28;20178;-67
2023/06/21 10:06:55;;;;;;;7.70;7.60;;;;;;;-145.94;46.95;75420.06;5115736;28;20181;-67
2023/06/21 10:09:22;;;;;;;11.45;7.45;;;;;;;-145.94;47.00;75424.13;5116192;28;20173;-67
2023/06/21 10:11:49;;;;;;;8.13;7.47;;;;;;;-145.94;47.26;75403.75;5115580;28;20242;-68
2023/06/21 10:14:23;;;;;;;7.68;6.72;;;;;;;-145.94;45.49;75424.13;5116118;28;20178;-67
2023/06/21 10:16:52;;;;;;;8.40;8.13;;;;;;;-145.94;46.51;75438.41;5116019;28;20229;-68
2023/06/21 10:19:24;;;;;;;8.15;7.95;;;;;;;-145.94;46.86;75454.72;5115663;28;20224;-68
2023/06/21 10:22:01;;;;;;;8.52;8.10;;;;;;;-145.94;47.21;75464.91;5115618;28;20189;-68
2023/06/21 10:24:35;;;;;;;8.02;7.65;;;;;;;-145.94;47.53;75485.28;5115358;28;20584;-68
2023/06/21 10:27:05;;;;;;;9.40;8.95;;;;;;;-145.94;48.93;75501.59;5115340;28;20210;-68
2023/06/21 10:29:34;;;;;;;10.35;9.63;;;;;;;-145.94;48.92;75513.84;5115367;28;20604;-68
2023/06/21 10:32:03;;;;;;;11.48;10.75;;;;;;;-145.94;49.66;75528.09;5115198;28;20604;-68
2023/06/21 10:35:06;;;;;;;11.85;11.05;;;;;;;-145.94;49.98;75552.56;5115057;28;20230;-68
2023/06/21 10:37:56;;;;;;;12.70;11.50;;;;;;;-145.94;50.34;75538.28;5115668;28;20624;-68
2023/06/21 10:40:24;;;;;;;9.18;8.93;;;;;;;-145.94;49.12;75530.13;5115242;28;20266;-67
2023/06/21 10:42:53;;;;;;;7.88;7.60;;;;;;;-145.94;49.14;75530.13;5096774;28;20185;-68
2023/06/21 10:45:20;;;;;;;13.20;12.23;;;;;;;-145.94;49.25;75530.13;5115187;28;20181;-68
2023/06/21 10:47:47;;;;;;;12.52;10.27;;;;;;;-145.94;50.05;75505.69;5115130;28;20169;-68
2023/06/21 10:50:15;;;;;;;10.40;9.48;;;;;;;-145.94;49.62;75468.97;5114956;28;20193;-69
2023/06/21 10:52:43;;;;;;;7.03;6.47;;;;;;;-145.94;45.90;75440.44;5114660;28;20185;-67
2023/06/21 10:55:13;;;;;;;7.38;6.97;;;;;;;-145.94;46.23;75450.63;5114972;28;20174;-67
2023/06/21 10:57:40;;;;;;;8.75;8.25;;;;;;;-145.94;46.68;75460.84;5114940;28;20185;-67
2023/06/21 11:00:08;;;;;;;10.00;9.65;;;;;;;-145.94;47.43;75468.97;5114830;28;20258;-68
2023/06/21 11:02:35;;;;;;;9.20;8.70;;;;;;;-145.94;47.17;75454.72;5114504;28;20705;-68
2023/06/21 11:05:22;;;;;;;8.35;7.82;;;;;;;-145.94;46.63;75489.38;5115064;28;20189;-68
2023/06/21 11:07:58;;;;;;;7.20;6.80;;;;;;;-145.94;46.55;75491.41;5114471;28;20191;-68
2023/06/21 11:10:43;;;;;;;8.98;8.30;;;;;;;-145.94;46.80;75493.44;5114383;28;20213;-68
2023/06/21 11:13:10;;;;;;;9.40;8.85;;;;;;;-145.94;47.27;75501.59;5114957;28;20177;-68
2023/06/21 11:15:39;;;;;;;8.23;7.95;;;;;;;-145.94;45.12;75452.69;5114266;28;20170;-67
2023/06/21 11:18:07;;;;;;;16.42;9.90;;;;;;;-145.94;45.54;75434.34;5114250;28;20185;-67
2023/06/21 11:21:05;;;;;;;11.13;10.32;;;;;;;-145.94;45.47;75438.41;5114111;28;20254;-67